sensor_id;sensor_type;location;lat;lon;timestamp;pressure;altitude;pressure_sealevel;temperature;humidity
39887;BME280;25559;44.738;20.980;2022-10-26T00:00:00;101322.56;;;13.86;100.00
39887;BME280;25559;44.738;20.980;2022-10-26T00:02:26;101320.91;;;13.82;100.00
39887;BME280;25559;44.738;20.980;2022-10-26T00:04:52;101324.41;;;13.79;100.00
39887;BME280;25559;44.738;20.980;2022-10-26T00:07:17;101326.25;;;13.74;100.00
39887;BME280;25559;44.738;20.980;2022-10-26T00:09:43;101319.34;;;13.72;100.00
39887;BME280;25559;44.738;20.980;2022-10-26T00:12:09;101328.06;;;13.67;100.00
39887;BME280;25559;44.738;20.980;2022-10-26T00:14:34;101323.00;;;13.60;100.00
39887;BME280;25559;44.738;20.980;2022-10-26T00:17:00;101324.75;;;13.59;100.00
39887;BME280;25559;44.738;20.980;2022-10-26T00:19:26;101309.28;;;13.48;100.00
39887;BME280;25559;44.738;20.980;2022-10-26T00:21:52;101326.41;;;13.62;100.00
39887;BME280;25559;44.738;20.980;2022-10-26T00:24:17;101318.59;;;13.62;100.00
39887;BME280;25559;44.738;20.980;2022-10-26T00:26:43;101321.25;;;13.60;100.00
39887;BME280;25559;44.738;20.980;2022-10-26T00:29:11;101331.69;;;13.59;100.00
39887;BME280;25559;44.738;20.980;2022-10-26T00:31:37;101335.13;;;13.61;100.00
39887;BME280;25559;44.738;20.980;2022-10-26T00:34:04;101332.56;;;13.59;100.00
39887;BME280;25559;44.738;20.980;2022-10-26T00:36:30;101329.13;;;13.56;100.00
39887;BME280;25559;44.738;20.980;2022-10-26T00:38:56;101330.84;;;13.57;100.00
39887;BME280;25559;44.738;20.980;2022-10-26T00:41:28;101334.31;;;13.57;100.00
39887;BME280;25559;44.738;20.980;2022-10-26T00:43:55;101336.94;;;13.56;100.00
39887;BME280;25559;44.738;20.980;2022-10-26T00:46:23;101337.84;;;13.55;100.00
39887;BME280;25559;44.738;20.980;2022-10-26T00:48:53;101338.72;;;13.54;100.00
39887;BME280;25559;44.738;20.980;2022-10-26T00:51:32;101347.41;;;13.51;100.00
39887;BME280;25559;44.738;20.980;2022-10-26T00:54:03;101344.00;;;13.49;100.00
39887;BME280;25559;44.738;20.980;2022-10-26T00:56:30;101345.75;;;13.48;100.00
39887;BME280;25559;44.738;20.980;2022-10-26T00:59:01;101344.03;;;13.46;100.00
39887;BME280;25559;44.738;20.980;2022-10-26T01:01:28;101336.25;;;13.44;100.00
39887;BME280;25559;44.738;20.980;2022-10-26T01:03:56;101341.47;;;13.43;100.00
39887;BME280;25559;44.738;20.980;2022-10-26T01:06:22;101335.44;;;13.42;100.00
39887;BME280;25559;44.738;20.980;2022-10-26T01:08:49;101333.75;;;13.37;100.00
39887;BME280;25559;44.738;20.980;2022-10-26T01:11:15;101333.75;;;13.37;100.00
39887;BME280;25559;44.738;20.980;2022-10-26T01:13:42;101335.50;;;13.31;100.00
39887;BME280;25559;44.738;20.980;2022-10-26T01:16:16;101340.88;;;13.21;100.00
39887;BME280;25559;44.738;20.980;2022-10-26T01:21:40;101335.75;;;13.14;100.00
39887;BME280;25559;44.738;20.980;2022-10-26T01:27:30;101335.81;;;13.11;100.00
39887;BME280;25559;44.738;20.980;2022-10-26T01:38:31;101341.81;;;13.18;100.00
39887;BME280;25559;44.738;20.980;2022-10-26T01:43:53;101340.88;;;13.21;100.00
39887;BME280;25559;44.738;20.980;2022-10-26T01:46:21;101342.63;;;13.20;100.00
39887;BME280;25559;44.738;20.980;2022-10-26T01:48:51;101338.28;;;13.21;100.00
39887;BME280;25559;44.738;20.980;2022-10-26T01:51:18;101336.53;;;13.23;100.00
39887;BME280;25559;44.738;20.980;2022-10-26T01:53:45;101345.16;;;13.25;100.00
39887;BME280;25559;44.738;20.980;2022-10-26T01:56:22;101333.91;;;13.24;100.00
39887;BME280;25559;44.738;20.980;2022-10-26T01:59:14;101331.28;;;13.26;100.00
39887;BME280;25559;44.738;20.980;2022-10-26T02:07:02;101337.31;;;13.28;100.00
39887;BME280;25559;44.738;20.980;2022-10-26T02:17:53;101334.06;;;13.13;100.00
39887;BME280;25559;44.738;20.980;2022-10-26T02:20:27;101327.22;;;13.06;100.00
39887;BME280;25559;44.738;20.980;2022-10-26T02:22:57;101319.50;;;12.98;100.00
39887;BME280;25559;44.738;20.980;2022-10-26T02:25:27;101330.84;;;12.93;100.00
39887;BME280;25559;44.738;20.980;2022-10-26T02:27:58;101327.44;;;12.89;100.00
39887;BME280;25559;44.738;20.980;2022-10-26T02:30:25;101324.91;;;12.83;100.00
39887;BME280;25559;44.738;20.980;2022-10-26T02:32:53;101318.88;;;12.79;100.00
39887;BME280;25559;44.738;20.980;2022-10-26T02:35:27;101322.38;;;12.77;100.00
39887;BME280;25559;44.738;20.980;2022-10-26T02:37:55;101329.34;;;12.73;100.00
39887;BME280;25559;44.738;20.980;2022-10-26T02:40:25;101330.25;;;12.71;100.00
39887;BME280;25559;44.738;20.980;2022-10-26T02:42:52;101326.00;;;12.65;100.00
39887;BME280;25559;44.738;20.980;2022-10-26T02:45:25;101326.03;;;12.60;100.00
39887;BME280;25559;44.738;20.980;2022-10-26T02:47:52;101333.88;;;12.57;100.00
39887;BME280;25559;44.738;20.980;2022-10-26T02:50:25;101331.31;;;12.54;100.00
39887;BME280;25559;44.738;20.980;2022-10-26T02:53:00;101341.72;;;12.54;100.00
39887;BME280;25559;44.738;20.980;2022-10-26T02:55:38;101342.63;;;12.50;100.00
39887;BME280;25559;44.738;20.980;2022-10-26T02:58:14;101342.66;;;12.46;100.00
39887;BME280;25559;44.738;20.980;2022-10-26T03:00:42;101344.44;;;12.42;100.00
39887;BME280;25559;44.738;20.980;2022-10-26T03:03:09;101338.44;;;12.35;100.00
39887;BME280;25559;44.738;20.980;2022-10-26T03:05:35;101341.91;;;12.33;100.00
39887;BME280;25559;44.738;20.980;2022-10-26T03:08:03;101346.31;;;12.27;100.00
39887;BME280;25559;44.738;20.980;2022-10-26T03:10:31;101343.75;;;12.24;100.00
39887;BME280;25559;44.738;20.980;2022-10-26T03:12:58;101342.06;;;12.17;100.00
39887;BME280;25559;44.738;20.980;2022-10-26T03:15:24;101341.19;;;12.20;100.00
39887;BME280;25559;44.738;20.980;2022-10-26T03:17:49;101352.47;;;12.16;100.00
39887;BME280;25559;44.738;20.980;2022-10-26T03:20:15;101349.91;;;12.13;100.00
39887;BME280;25559;44.738;20.980;2022-10-26T03:22:40;101354.28;;;12.07;100.00
39887;BME280;25559;44.738;20.980;2022-10-26T03:25:06;101363.00;;;12.02;100.00
39887;BME280;25559;44.738;20.980;2022-10-26T03:27:32;101357.84;;;11.96;100.00
39887;BME280;25559;44.738;20.980;2022-10-26T03:29:59;101364.81;;;11.87;100.00
39887;BME280;25559;44.738;20.980;2022-10-26T03:32:25;101369.13;;;11.85;100.00
39887;BME280;25559;44.738;20.980;2022-10-26T03:34:50;101370.91;;;11.82;100.00
39887;BME280;25559;44.738;20.980;2022-10-26T03:37:16;101374.38;;;11.79;100.00
39887;BME280;25559;44.738;20.980;2022-10-26T03:39:41;101371.84;;;11.71;100.00
39887;BME280;25559;44.738;20.980;2022-10-26T03:42:07;101366.69;;;11.64;100.00
39887;BME280;25559;44.738;20.980;2022-10-26T03:44:33;101366.75;;;11.58;100.00
39887;BME280;25559;44.738;20.980;2022-10-26T03:46:58;101376.31;;;11.51;100.00
39887;BME280;25559;44.738;20.980;2022-10-26T03:49:24;101368.53;;;11.45;100.00
39887;BME280;25559;44.738;20.980;2022-10-26T03:51:49;101368.56;;;11.38;100.00
39887;BME280;25559;44.738;20.980;2022-10-26T03:54:15;101366.03;;;11.32;100.00
39887;BME280;25559;44.738;20.980;2022-10-26T03:56:41;101365.19;;;11.27;100.00
39887;BME280;25559;44.738;20.980;2022-10-26T03:59:06;101370.41;;;11.21;100.00
39887;BME280;25559;44.738;20.980;2022-10-26T04:01:32;101358.31;;;11.18;100.00
39887;BME280;25559;44.738;20.980;2022-10-26T04:03:58;101362.66;;;11.16;100.00
39887;BME280;25559;44.738;20.980;2022-10-26T04:06:23;101360.13;;;11.07;100.00
39887;BME280;25559;44.738;20.980;2022-10-26T04:08:49;101352.34;;;11.02;100.00
39887;BME280;25559;44.738;20.980;2022-10-26T04:11:15;101359.25;;;11.00;100.00
39887;BME280;25559;44.738;20.980;2022-10-26T04:13:41;101326.53;;;10.73;100.00
39887;BME280;25559;44.738;20.980;2022-10-26T04:16:07;101361.88;;;10.94;100.00
39887;BME280;25559;44.738;20.980;2022-10-26T04:18:33;101360.19;;;10.90;100.00
39887;BME280;25559;44.738;20.980;2022-10-26T04:21:02;101369.69;;;10.85;100.00
39887;BME280;25559;44.738;20.980;2022-10-26T04:23:27;101361.06;;;10.81;100.00
39887;BME280;25559;44.738;20.980;2022-10-26T04:25:53;101359.34;;;10.76;100.00
39887;BME280;25559;44.738;20.980;2022-10-26T04:28:19;101368.88;;;10.75;100.00
39887;BME280;25559;44.738;20.980;2022-10-26T04:30:46;101369.75;;;10.73;100.00
39887;BME280;25559;44.738;20.980;2022-10-26T04:33:12;101362.81;;;10.72;100.00
39887;BME280;25559;44.738;20.980;2022-10-26T04:35:37;101367.16;;;10.73;100.00
39887;BME280;25559;44.738;20.980;2022-10-26T04:38:05;101361.97;;;10.73;100.00
39887;BME280;25559;44.738;20.980;2022-10-26T04:40:31;101361.97;;;10.70;100.00
39887;BME280;25559;44.738;20.980;2022-10-26T04:42:58;101366.31;;;10.69;100.00
39887;BME280;25559;44.738;20.980;2022-10-26T04:45:24;101369.75;;;10.70;100.00
39887;BME280;25559;44.738;20.980;2022-10-26T04:48:09;101365.41;;;10.67;100.00
39887;BME280;25559;44.738;20.980;2022-10-26T04:50:35;101368.91;;;10.69;100.00
39887;BME280;25559;44.738;20.980;2022-10-26T04:53:02;101377.53;;;10.70;100.00
39887;BME280;25559;44.738;20.980;2022-10-26T04:55:28;101378.38;;;10.70;100.00
39887;BME280;25559;44.738;20.980;2022-10-26T04:57:54;101380.97;;;10.72;100.00
39887;BME280;25559;44.738;20.980;2022-10-26T05:00:20;101374.91;;;10.73;100.00
39887;BME280;25559;44.738;20.980;2022-10-26T05:02:45;101374.91;;;10.73;100.00
39887;BME280;25559;44.738;20.980;2022-10-26T05:05:11;101371.47;;;10.71;100.00
39887;BME280;25559;44.738;20.980;2022-10-26T05:07:37;101383.56;;;10.69;100.00
39887;BME280;25559;44.738;20.980;2022-10-26T05:10:03;101386.16;;;10.67;100.00
39887;BME280;25559;44.738;20.980;2022-10-26T05:12:28;101374.09;;;10.68;100.00
39887;BME280;25559;44.738;20.980;2022-10-26T05:14:54;101381.84;;;10.69;100.00
39887;BME280;25559;44.738;20.980;2022-10-26T05:17:25;101380.09;;;10.71;100.00
39887;BME280;25559;44.738;20.980;2022-10-26T05:19:51;101380.06;;;10.82;100.00
39887;BME280;25559;44.738;20.980;2022-10-26T05:22:25;101380.03;;;10.93;100.00
39887;BME280;25559;44.738;20.980;2022-10-26T05:24:51;101378.19;;;11.23;100.00
39887;BME280;25559;44.738;20.980;2022-10-26T05:27:17;101351.09;;;11.68;100.00
39887;BME280;25559;44.738;20.980;2022-10-26T05:29:43;101375.75;;;12.28;100.00
39887;BME280;25559;44.738;20.980;2022-10-26T05:32:09;101376.34;;;12.55;100.00
39887;BME280;25559;44.738;20.980;2022-10-26T05:34:35;101392.81;;;12.55;100.00
39887;BME280;25559;44.738;20.980;2022-10-26T05:37:00;101385.81;;;12.64;100.00
39887;BME280;25559;44.738;20.980;2022-10-26T05:39:26;101392.41;;;12.94;100.00
39887;BME280;25559;44.738;20.980;2022-10-26T05:41:52;101396.81;;;13.57;100.00
39887;BME280;25559;44.738;20.980;2022-10-26T05:44:17;101402.63;;;14.29;96.63
39887;BME280;25559;44.738;20.980;2022-10-26T05:46:46;101405.31;;;15.20;92.17
39887;BME280;25559;44.738;20.980;2022-10-26T05:49:11;101398.38;;;15.95;86.64
39887;BME280;25559;44.738;20.980;2022-10-26T05:51:37;101396.63;;;16.65;80.78
39887;BME280;25559;44.738;20.980;2022-10-26T05:54:04;101400.06;;;17.58;76.26
39887;BME280;25559;44.738;20.980;2022-10-26T05:56:39;101404.44;;;18.13;67.39
39887;BME280;25559;44.738;20.980;2022-10-26T05:59:13;101400.97;;;18.89;63.70
39887;BME280;25559;44.738;20.980;2022-10-26T06:04:24;101409.44;;;20.51;59.02
39887;BME280;25559;44.738;20.980;2022-10-26T06:06:54;101417.63;;;21.43;56.45
39887;BME280;25559;44.738;20.980;2022-10-26T06:09:20;101409.09;;;22.28;53.53
39887;BME280;25559;44.738;20.980;2022-10-26T06:11:47;101408.00;;;23.17;50.96
39887;BME280;25559;44.738;20.980;2022-10-26T06:14:14;101406.66;;;23.73;49.08
39887;BME280;25559;44.738;20.980;2022-10-26T06:24:46;101415.06;;;25.56;40.98
39887;BME280;25559;44.738;20.980;2022-10-26T06:30:13;101409.97;;;26.33;39.29
39887;BME280;25559;44.738;20.980;2022-10-26T06:32:43;101421.06;;;26.79;38.19
39887;BME280;25559;44.738;20.980;2022-10-26T06:37:51;101419.78;;;27.82;35.84
39887;BME280;25559;44.738;20.980;2022-10-26T06:40:18;101420.06;;;28.26;35.34
39887;BME280;25559;44.738;20.980;2022-10-26T06:42:44;101427.66;;;28.66;34.32
39887;BME280;25559;44.738;20.980;2022-10-26T06:45:14;101431.41;;;29.09;33.14
39887;BME280;25559;44.738;20.980;2022-10-26T06:47:56;101426.13;;;29.64;32.52
39887;BME280;25559;44.738;20.980;2022-10-26T06:55:39;101438.91;;;29.38;33.62
39887;BME280;25559;44.738;20.980;2022-10-26T06:58:09;101442.81;;;28.19;35.27
39887;BME280;25559;44.738;20.980;2022-10-26T07:00:37;101429.31;;;26.61;39.21
39887;BME280;25559;44.738;20.980;2022-10-26T07:03:03;101438.66;;;27.05;39.65
39887;BME280;25559;44.738;20.980;2022-10-26T07:05:29;101444.41;;;26.35;41.53
39887;BME280;25559;44.738;20.980;2022-10-26T07:07:54;101454.78;;;25.85;43.83
39887;BME280;25559;44.738;20.980;2022-10-26T07:10:20;101454.44;;;24.63;49.89
39887;BME280;25559;44.738;20.980;2022-10-26T07:12:45;101457.69;;;23.44;54.64
39887;BME280;25559;44.738;20.980;2022-10-26T07:15:11;101455.38;;;23.69;54.92
39887;BME280;25559;44.738;20.980;2022-10-26T07:17:43;101451.03;;;23.36;55.63
39887;BME280;25559;44.738;20.980;2022-10-26T07:20:11;101452.03;;;23.18;56.28
39887;BME280;25559;44.738;20.980;2022-10-26T07:22:37;101450.88;;;24.18;53.82
39887;BME280;25559;44.738;20.980;2022-10-26T07:25:03;101449.97;;;24.78;51.19
39887;BME280;25559;44.738;20.980;2022-10-26T07:27:29;101453.56;;;24.62;51.09
39887;BME280;25559;44.738;20.980;2022-10-26T07:29:54;101453.84;;;23.81;53.71
39887;BME280;25559;44.738;20.980;2022-10-26T07:32:20;101452.31;;;22.96;56.60
39887;BME280;25559;44.738;20.980;2022-10-26T07:34:45;101460.09;;;22.29;58.85
39887;BME280;25559;44.738;20.980;2022-10-26T07:37:11;101458.13;;;20.83;65.25
39887;BME280;25559;44.738;20.980;2022-10-26T07:39:36;101454.31;;;19.84;70.84
39887;BME280;25559;44.738;20.980;2022-10-26T07:42:02;101452.41;;;18.95;75.04
39887;BME280;25559;44.738;20.980;2022-10-26T07:44:28;101462.47;;;18.30;79.68
39887;BME280;25559;44.738;20.980;2022-10-26T07:46:53;101468.00;;;17.94;82.69
39887;BME280;25559;44.738;20.980;2022-10-26T07:49:19;101471.22;;;17.44;87.57
39887;BME280;25559;44.738;20.980;2022-10-26T07:51:44;101463.91;;;17.55;94.30
39887;BME280;25559;44.738;20.980;2022-10-26T07:54:10;101465.06;;;17.75;90.62
39887;BME280;25559;44.738;20.980;2022-10-26T07:56:35;101464.88;;;17.81;90.97
39887;BME280;25559;44.738;20.980;2022-10-26T07:59:01;101469.53;;;17.71;90.32
39887;BME280;25559;44.738;20.980;2022-10-26T08:01:26;101472.66;;;17.54;92.20
39887;BME280;25559;44.738;20.980;2022-10-26T08:03:53;101479.75;;;17.21;94.61
39887;BME280;25559;44.738;20.980;2022-10-26T08:06:20;101466.34;;;17.32;94.55
39887;BME280;25559;44.738;20.980;2022-10-26T08:08:46;101472.31;;;17.37;95.14
39887;BME280;25559;44.738;20.980;2022-10-26T08:11:12;101479.31;;;17.36;95.15
39887;BME280;25559;44.738;20.980;2022-10-26T08:13:37;101469.34;;;17.49;93.82
39887;BME280;25559;44.738;20.980;2022-10-26T08:16:04;101458.03;;;18.05;92.08
39887;BME280;25559;44.738;20.980;2022-10-26T08:18:29;101465.13;;;18.80;87.44
39887;BME280;25559;44.738;20.980;2022-10-26T08:21:03;101462.00;;;20.11;80.10
39887;BME280;25559;44.738;20.980;2022-10-26T08:23:30;101450.69;;;23.27;65.71
39887;BME280;25559;44.738;20.980;2022-10-26T08:25:59;101448.09;;;25.38;56.31
39887;BME280;25559;44.738;20.980;2022-10-26T08:28:26;101437.56;;;27.34;48.91
39887;BME280;25559;44.738;20.980;2022-10-26T08:30:52;101441.13;;;28.76;43.89
39887;BME280;25559;44.738;20.980;2022-10-26T08:33:17;101445.38;;;30.11;40.19
39887;BME280;25559;44.738;20.980;2022-10-26T08:35:43;101442.69;;;30.85;37.94
39887;BME280;25559;44.738;20.980;2022-10-26T08:38:08;101444.22;;;32.27;34.28
39887;BME280;25559;44.738;20.980;2022-10-26T08:40:38;101446.00;;;32.93;33.60
39887;BME280;25559;44.738;20.980;2022-10-26T08:45:45;101455.31;;;33.63;31.21
39887;BME280;25559;44.738;20.980;2022-10-26T08:48:19;101453.41;;;34.27;30.54
39887;BME280;25559;44.738;20.980;2022-10-26T08:50:54;101437.41;;;34.78;29.70
39887;BME280;25559;44.738;20.980;2022-10-26T08:55:56;101454.19;;;35.07;27.97
39887;BME280;25559;44.738;20.980;2022-10-26T08:58:31;101449.78;;;35.65;27.98
39887;BME280;25559;44.738;20.980;2022-10-26T09:01:00;101444.69;;;35.37;27.57
39887;BME280;25559;44.738;20.980;2022-10-26T09:03:27;101450.63;;;35.65;27.46
39887;BME280;25559;44.738;20.980;2022-10-26T09:11:53;101446.72;;;35.35;27.68
39887;BME280;25559;44.738;20.980;2022-10-26T09:14:38;101456.38;;;35.19;27.83
39887;BME280;25559;44.738;20.980;2022-10-26T09:25:28;101464.75;;;32.66;32.14
39887;BME280;25559;44.738;20.980;2022-10-26T09:28:00;101456.63;;;32.18;32.74
39887;BME280;25559;44.738;20.980;2022-10-26T09:30:27;101452.19;;;31.49;34.83
39887;BME280;25559;44.738;20.980;2022-10-26T09:35:51;101461.97;;;30.47;36.12
39887;BME280;25559;44.738;20.980;2022-10-26T09:44:00;101457.75;;;30.12;38.51
39887;BME280;25559;44.738;20.980;2022-10-26T09:46:45;101453.47;;;29.89;38.73
39887;BME280;25559;44.738;20.980;2022-10-26T09:49:14;101455.69;;;29.72;39.36
39887;BME280;25559;44.738;20.980;2022-10-26T09:51:43;101449.50;;;29.72;38.49
39887;BME280;25559;44.738;20.980;2022-10-26T09:54:16;101446.47;;;29.65;38.95
39887;BME280;25559;44.738;20.980;2022-10-26T09:56:52;101445.50;;;29.34;40.02
39887;BME280;25559;44.738;20.980;2022-10-26T09:59:21;101443.31;;;28.94;40.70
39887;BME280;25559;44.738;20.980;2022-10-26T10:01:47;101439.19;;;28.78;40.49
39887;BME280;25559;44.738;20.980;2022-10-26T10:06:42;101444.34;;;27.99;42.50
39887;BME280;25559;44.738;20.980;2022-10-26T10:09:16;101439.78;;;27.88;42.65
39887;BME280;25559;44.738;20.980;2022-10-26T10:11:54;101436.22;;;27.76;43.91
39887;BME280;25559;44.738;20.980;2022-10-26T10:14:32;101440.47;;;27.55;43.07
39887;BME280;25559;44.738;20.980;2022-10-26T10:17:01;101437.16;;;27.51;44.09
39887;BME280;25559;44.738;20.980;2022-10-26T10:19:34;101443.25;;;27.53;43.32
39887;BME280;25559;44.738;20.980;2022-10-26T10:22:08;101442.34;;;27.41;44.00
39887;BME280;25559;44.738;20.980;2022-10-26T10:24:37;101441.81;;;27.36;43.30
39887;BME280;25559;44.738;20.980;2022-10-26T10:27:15;101442.16;;;27.19;44.42
39887;BME280;25559;44.738;20.980;2022-10-26T10:29:49;101430.34;;;27.10;45.82
39887;BME280;25559;44.738;20.980;2022-10-26T10:32:23;101433.22;;;27.20;45.21
39887;BME280;25559;44.738;20.980;2022-10-26T10:34:51;101432.78;;;27.26;44.46
39887;BME280;25559;44.738;20.980;2022-10-26T10:37:35;101427.03;;;27.19;44.17
39887;BME280;25559;44.738;20.980;2022-10-26T10:40:22;101428.13;;;27.04;44.84
39887;BME280;25559;44.738;20.980;2022-10-26T10:42:49;101428.25;;;27.02;44.44
39887;BME280;25559;44.738;20.980;2022-10-26T10:45:25;101425.91;;;26.98;44.57
39887;BME280;25559;44.738;20.980;2022-10-26T10:53:23;101425.09;;;26.71;44.50
39887;BME280;25559;44.738;20.980;2022-10-26T10:56:15;101423.88;;;26.63;44.67
39887;BME280;25559;44.738;20.980;2022-10-26T11:01:13;101415.19;;;26.86;44.31
39887;BME280;25559;44.738;20.980;2022-10-26T11:06:20;101424.22;;;26.97;42.94
39887;BME280;25559;44.738;20.980;2022-10-26T11:08:54;101412.59;;;26.98;42.15
39887;BME280;25559;44.738;20.980;2022-10-26T11:11:31;101409.66;;;26.89;42.38
39887;BME280;25559;44.738;20.980;2022-10-26T11:14:07;101397.97;;;26.79;42.79
39887;BME280;25559;44.738;20.980;2022-10-26T11:16:41;101402.97;;;26.84;42.48
39887;BME280;25559;44.738;20.980;2022-10-26T11:19:32;101406.47;;;26.71;43.12
39887;BME280;25559;44.738;20.980;2022-10-26T11:22:02;101405.53;;;25.66;44.75
39887;BME280;25559;44.738;20.980;2022-10-26T11:24:37;101404.78;;;25.23;46.42
39887;BME280;25559;44.738;20.980;2022-10-26T11:27:22;101406.59;;;25.08;46.81
39887;BME280;25559;44.738;20.980;2022-10-26T11:30:05;101402.53;;;24.73;48.52
39887;BME280;25559;44.738;20.980;2022-10-26T11:32:55;101405.16;;;24.44;48.69
39887;BME280;25559;44.738;20.980;2022-10-26T11:38:21;101404.88;;;24.04;49.92
39887;BME280;25559;44.738;20.980;2022-10-26T11:43:40;101404.44;;;23.66;50.41
39887;BME280;25559;44.738;20.980;2022-10-26T11:46:21;101399.66;;;23.40;51.63
39887;BME280;25559;44.738;20.980;2022-10-26T11:51:35;101407.81;;;23.04;54.56
39887;BME280;25559;44.738;20.980;2022-10-26T11:54:08;101398.84;;;22.91;53.77
39887;BME280;25559;44.738;20.980;2022-10-26T11:56:38;101401.72;;;22.70;54.21
39887;BME280;25559;44.738;20.980;2022-10-26T11:59:12;101402.88;;;22.64;53.81
39887;BME280;25559;44.738;20.980;2022-10-26T12:01:39;101402.47;;;22.19;54.78
39887;BME280;25559;44.738;20.980;2022-10-26T12:04:05;101397.44;;;22.15;55.29
39887;BME280;25559;44.738;20.980;2022-10-26T12:06:32;101396.16;;;22.06;56.14
39887;BME280;25559;44.738;20.980;2022-10-26T12:09:03;101389.38;;;22.00;55.91
39887;BME280;25559;44.738;20.980;2022-10-26T12:12:13;101392.56;;;21.90;56.56
39887;BME280;25559;44.738;20.980;2022-10-26T12:15:24;101383.69;;;21.91;57.18
39887;BME280;25559;44.738;20.980;2022-10-26T12:17:44;101385.19;;;21.79;57.55
39887;BME280;25559;44.738;20.980;2022-10-26T12:23:13;101393.66;;;21.67;57.33
39887;BME280;25559;44.738;20.980;2022-10-26T12:25:39;101389.22;;;21.50;57.49
39887;BME280;25559;44.738;20.980;2022-10-26T12:34:11;101393.72;;;21.84;58.20
39887;BME280;25559;44.738;20.980;2022-10-26T12:39:35;101389.38;;;22.00;57.40
39887;BME280;25559;44.738;20.980;2022-10-26T12:47:08;101383.63;;;22.10;57.17
39887;BME280;25559;44.738;20.980;2022-10-26T13:00:26;101389.22;;;21.50;61.42
39887;BME280;25559;44.738;20.980;2022-10-26T13:06:01;101380.78;;;21.60;58.98
39887;BME280;25559;44.738;20.980;2022-10-26T13:08:43;101382.50;;;21.61;59.66
39887;BME280;25559;44.738;20.980;2022-10-26T13:11:31;101384.81;;;21.50;58.33
39887;BME280;25559;44.738;20.980;2022-10-26T13:14:04;101380.50;;;21.28;58.35
39887;BME280;25559;44.738;20.980;2022-10-26T13:16:31;101376.47;;;21.21;59.51
39887;BME280;25559;44.738;20.980;2022-10-26T13:18:58;101372.34;;;21.16;61.44
39887;BME280;25559;44.738;20.980;2022-10-26T13:21:25;101372.34;;;21.16;60.99
39887;BME280;25559;44.738;20.980;2022-10-26T13:26:19;101370.56;;;20.97;61.91
39887;BME280;25559;44.738;20.980;2022-10-26T13:33:45;101380.66;;;21.25;61.71
39887;BME280;25559;44.738;20.980;2022-10-26T13:38:46;101377.19;;;21.25;59.99
39887;BME280;25559;44.738;20.980;2022-10-26T13:41:31;101381.00;;;21.37;61.89
39887;BME280;25559;44.738;20.980;2022-10-26T13:43:58;101378.94;;;21.43;60.73
39887;BME280;25559;44.738;20.980;2022-10-26T13:46:28;101369.41;;;21.41;59.10
39887;BME280;25559;44.738;20.980;2022-10-26T13:48:59;101370.47;;;21.37;58.01
39887;BME280;25559;44.738;20.980;2022-10-26T13:51:34;101374.78;;;21.38;58.32
39887;BME280;25559;44.738;20.980;2022-10-26T13:56:44;101369.63;;;21.55;58.49
39887;BME280;25559;44.738;20.980;2022-10-26T13:59:13;101370.38;;;21.57;58.31
39887;BME280;25559;44.738;20.980;2022-10-26T14:01:39;101367.28;;;21.67;57.98
39887;BME280;25559;44.738;20.980;2022-10-26T14:04:27;101360.88;;;21.72;57.66
39887;BME280;25559;44.738;20.980;2022-10-26T14:06:53;101361.59;;;21.76;57.20
39887;BME280;25559;44.738;20.980;2022-10-26T14:09:19;101365.06;;;21.76;56.99
39887;BME280;25559;44.738;20.980;2022-10-26T14:11:53;101361.34;;;21.80;56.88
39887;BME280;25559;44.738;20.980;2022-10-26T14:14:26;101351.56;;;21.82;56.36
39887;BME280;25559;44.738;20.980;2022-10-26T14:16:53;101361.13;;;21.85;56.62
39887;BME280;25559;44.738;20.980;2022-10-26T14:19:33;101363.91;;;21.82;57.56
39887;BME280;25559;44.738;20.980;2022-10-26T14:21:59;101364.31;;;21.74;56.52
39887;BME280;25559;44.738;20.980;2022-10-26T14:24:33;101367.38;;;21.65;56.91
39887;BME280;25559;44.738;20.980;2022-10-26T14:26:59;101373.91;;;21.58;55.88
39887;BME280;25559;44.738;20.980;2022-10-26T14:29:27;101372.19;;;21.57;56.60
39887;BME280;25559;44.738;20.980;2022-10-26T14:31:55;101372.94;;;21.59;55.76
39887;BME280;25559;44.738;20.980;2022-10-26T14:34:22;101381.66;;;21.61;55.64
39887;BME280;25559;44.738;20.980;2022-10-26T14:36:59;101378.13;;;21.60;55.55
39887;BME280;25559;44.738;20.980;2022-10-26T14:39:38;101375.66;;;21.57;56.29
39887;BME280;25559;44.738;20.980;2022-10-26T14:42:24;101380.00;;;21.58;57.28
39887;BME280;25559;44.738;20.980;2022-10-26T14:44:51;101373.91;;;21.58;56.64
39887;BME280;25559;44.738;20.980;2022-10-26T14:47:26;101373.09;;;21.56;58.81
39887;BME280;25559;44.738;20.980;2022-10-26T14:49:53;101370.69;;;21.51;58.22
39887;BME280;25559;44.738;20.980;2022-10-26T14:52:25;101370.88;;;21.46;58.39
39887;BME280;25559;44.738;20.980;2022-10-26T14:55:15;101376.50;;;21.39;57.29
39887;BME280;25559;44.738;20.980;2022-10-26T14:57:42;101375.81;;;21.35;57.86
39887;BME280;25559;44.738;20.980;2022-10-26T15:02:43;101372.81;;;21.24;57.62
39887;BME280;25559;44.738;20.980;2022-10-26T15:07:42;101379.69;;;21.09;58.77
39887;BME280;25559;44.738;20.980;2022-10-26T15:13:20;101380.38;;;20.93;60.21
39887;BME280;25559;44.738;20.980;2022-10-26T15:15:49;101386.78;;;20.88;60.35
39887;BME280;25559;44.738;20.980;2022-10-26T15:18:22;101386.19;;;20.81;60.43
39887;BME280;25559;44.738;20.980;2022-10-26T15:20:51;101386.41;;;20.76;60.04